Time;durP1;ratioP1;P1;durP2;ratioP2;P2;SDS_P1;SDS_P2;PMS_P1;PMS_P2;Temp;Humidity;BMP_temperature;BMP_pressure;BME280_temperature;BME280_humidity;BME280_pressure;Samples;Min_cycle;Max_cycle;Signal;HPM_P1;HPM_P2
2023/02/09 00:00:23;;;;;;;7.53;5.25;;;19.80;66.40;;;;;;5030837;28;20212;-64
2023/02/09 00:02:49;;;;;;;5.75;4.63;;;19.80;66.30;;;;;;5025129;28;20203;-64
2023/02/09 00:05:16;;;;;;;5.45;4.95;;;19.80;67.10;;;;;;5030042;28;20203;-65
2023/02/09 00:07:44;;;;;;;6.35;4.88;;;19.80;66.30;;;;;;5035515;28;20210;-65
2023/02/09 00:10:11;;;;;;;4.88;4.47;;;19.80;66.30;;;;;;5032565;28;20193;-64
2023/02/09 00:15:22;;;;;;;5.35;4.63;;;19.80;66.30;;;;;;5028368;28;20262;-64
2023/02/09 00:17:49;;;;;;;4.63;4.22;;;19.80;66.30;;;;;;5031913;28;20660;-64
2023/02/09 00:20:16;;;;;;;4.63;3.70;;;19.80;66.40;;;;;;5034646;28;20224;-65
2023/02/09 00:22:44;;;;;;;5.63;4.57;;;19.80;66.30;;;;;;5039510;28;20589;-65
2023/02/09 00:25:10;;;;;;;4.97;4.47;;;19.80;66.30;;;;;;5035309;28;20199;-64
2023/02/09 00:27:37;;;;;;;4.70;4.05;;;19.80;66.40;;;;;;5034319;28;20211;-65
2023/02/09 00:30:04;;;;;;;5.88;4.25;;;19.80;66.30;;;;;;5031438;28;20208;-65
2023/02/09 00:32:31;;;;;;;4.40;3.70;;;19.80;66.40;;;;;;5049863;28;20199;-64
2023/02/09 00:34:58;;;;;;;4.45;4.05;;;19.80;66.30;;;;;;5031988;28;20223;-64
2023/02/09 00:37:25;;;;;;;4.20;3.80;;;19.80;66.30;;;;;;5024458;28;20203;-65
2023/02/09 00:39:53;;;;;;;4.63;4.18;;;19.80;66.30;;;;;;5031863;28;20585;-65
2023/02/09 00:42:20;;;;;;;4.50;4.03;;;19.80;66.40;;;;;;5039484;28;20668;-64
2023/02/09 00:44:46;;;;;;;4.70;4.30;;;19.80;66.40;;;;;;5048398;28;20207;-65
2023/02/09 00:47:13;;;;;;;3.97;3.60;;;19.80;66.30;;;;;;5026615;28;20201;-65
2023/02/09 00:49:40;;;;;;;5.70;3.80;;;19.80;66.40;;;;;;5046830;28;20226;-64
2023/02/09 00:52:06;;;;;;;5.15;4.20;;;19.80;66.30;;;;;;5025899;28;20198;-64
2023/02/09 00:54:33;;;;;;;6.57;4.40;;;19.80;66.30;;;;;;5033269;28;20665;-64
2023/02/09 00:57:04;;;;;;;5.10;4.60;;;19.80;66.30;;;;;;5034484;28;20518;-64
2023/02/09 00:59:32;;;;;;;3.97;3.67;;;19.70;66.20;;;;;;5039946;28;20258;-64
2023/02/09 01:01:59;;;;;;;4.00;3.60;;;19.80;66.40;;;;;;5026289;28;20252;-65
2023/02/09 01:04:26;;;;;;;4.60;4.15;;;19.70;66.20;;;;;;5037613;28;20200;-65
2023/02/09 01:06:52;;;;;;;4.80;4.30;;;19.70;66.20;;;;;;5032716;28;20207;-64
2023/02/09 01:09:19;;;;;;;4.40;4.00;;;19.80;66.40;;;;;;5028248;28;20188;-65
2023/02/09 01:11:46;;;;;;;4.95;4.15;;;19.80;66.40;;;;;;5028527;28;20205;-65
2023/02/09 01:14:14;;;;;;;4.53;3.95;;;19.70;66.20;;;;;;5030519;28;20223;-64
2023/02/09 01:16:41;;;;;;;4.57;3.55;;;19.70;66.20;;;;;;5022974;28;20291;-65
2023/02/09 01:19:07;;;;;;;3.95;3.55;;;19.70;66.20;;;;;;5022065;28;20204;-65
2023/02/09 01:21:34;;;;;;;3.63;3.33;;;19.70;66.20;;;;;;5021156;28;20258;-65
2023/02/09 01:24:01;;;;;;;4.25;3.88;;;19.70;66.20;;;;;;5023108;28;20192;-64
2023/02/09 01:26:28;;;;;;;4.57;3.88;;;19.70;66.30;;;;;;5022162;28;20204;-65
2023/02/09 01:28:55;;;;;;;4.32;3.60;;;19.70;66.20;;;;;;5029755;28;20208;-65
2023/02/09 01:31:26;;;;;;;4.82;4.32;;;19.70;66.20;;;;;;5027422;28;20293;-65
2023/02/09 01:33:53;;;;;;;4.22;3.83;;;19.70;66.20;;;;;;5026297;28;20210;-64
2023/02/09 01:36:20;;;;;;;4.72;4.32;;;19.70;66.20;;;;;;5026914;28;20211;-65
2023/02/09 01:38:47;;;;;;;4.45;4.03;;;19.70;66.20;;;;;;5027477;28;20196;-64
2023/02/09 01:41:14;;;;;;;3.47;3.15;;;19.70;66.20;;;;;;5026579;28;20218;-65
2023/02/09 01:43:57;;;;;;;3.75;3.45;;;19.70;66.50;;;;;;5020345;28;20204;-65
2023/02/09 01:46:27;;;;;;;5.18;3.92;;;19.70;66.20;;;;;;5017518;28;20215;-64
2023/02/09 01:48:59;;;;;;;4.00;3.70;;;19.70;66.20;;;;;;5031015;28;20222;-64
2023/02/09 01:51:27;;;;;;;3.95;3.60;;;19.70;66.20;;;;;;5029349;28;20196;-64
2023/02/09 01:53:54;;;;;;;3.85;3.45;;;19.70;66.30;;;;;;5026242;28;20196;-64
2023/02/09 01:56:25;;;;;;;4.95;3.88;;;19.70;66.20;;;;;;5025043;28;20671;-64
2023/02/09 01:58:52;;;;;;;3.75;3.45;;;19.70;66.30;;;;;;5021395;28;20192;-64
2023/02/09 02:01:19;;;;;;;4.43;3.60;;;19.70;66.30;;;;;;5026859;28;20232;-64
2023/02/09 02:03:47;;;;;;;4.57;3.60;;;19.70;66.30;;;;;;5023252;28;20192;-65
2023/02/09 02:06:16;;;;;;;3.28;3.05;;;19.70;66.30;;;;;;5024763;28;20694;-64
2023/02/09 02:08:48;;;;;;;4.13;3.65;;;19.70;66.30;;;;;;5025736;28;20203;-64
2023/02/09 02:11:16;;;;;;;3.60;3.30;;;19.70;66.30;;;;;;5030263;28;20592;-65
2023/02/09 02:13:42;;;;;;;3.55;3.25;;;19.70;66.20;;;;;;5029254;28;20204;-64
2023/02/09 02:16:26;;;;;;;4.22;3.83;;;19.70;66.30;;;;;;5025103;28;20572;-64
2023/02/09 02:19:08;;;;;;;3.80;3.30;;;19.70;66.30;;;;;;5030149;28;20214;-64
2023/02/09 02:22:04;;;;;;;4.32;3.83;;;19.70;66.30;;;;;;5036274;28;20223;-64
2023/02/09 02:25:08;;;;;;;3.92;3.47;;;19.70;66.30;;;;;;5022792;28;20501;-65
2023/02/09 02:27:43;;;;;;;3.83;3.50;;;19.70;66.30;;;;;;5023147;28;20581;-64
2023/02/09 02:30:26;;;;;;;3.70;3.28;;;19.70;66.30;;;;;;5033039;28;20743;-64
2023/02/09 02:33:00;;;;;;;3.70;3.20;;;19.70;66.30;;;;;;5023511;28;20587;-64
2023/02/09 02:35:35;;;;;;;4.47;3.88;;;19.70;66.30;;;;;;5028010;28;20191;-65
2023/02/09 02:38:10;;;;;;;3.28;2.92;;;19.70;66.70;;;;;;5026475;28;20214;-65
2023/02/09 02:40:53;;;;;;;4.32;3.92;;;19.70;66.30;;;;;;5027341;28;20223;-65
2023/02/09 02:43:33;;;;;;;3.50;3.08;;;19.70;66.30;;;;;;5038322;28;20192;-65
2023/02/09 02:46:04;;;;;;;3.67;3.38;;;19.70;66.30;;;;;;5024119;28;20207;-65
2023/02/09 02:48:39;;;;;;;3.33;3.05;;;19.70;66.30;;;;;;5026344;28;20196;-65
2023/02/09 02:51:12;;;;;;;4.18;3.78;;;19.70;66.30;;;;;;5038777;28;20195;-65
2023/02/09 02:53:43;;;;;;;3.55;3.25;;;19.70;66.30;;;;;;5032356;28;20204;-64
2023/02/09 02:56:15;;;;;;;3.22;2.92;;;19.70;66.30;;;;;;5031107;28;20203;-65
2023/02/09 02:58:44;;;;;;;4.40;4.03;;;19.70;66.30;;;;;;5028576;28;20668;-65
2023/02/09 03:01:14;;;;;;;4.90;4.03;;;19.70;66.30;;;;;;5033115;28;20220;-64
2023/02/09 03:03:44;;;;;;;4.55;3.65;;;19.70;66.30;;;;;;5034470;28;20207;-65
2023/02/09 03:06:13;;;;;;;3.53;3.22;;;19.70;66.30;;;;;;5031870;28;20672;-64
2023/02/09 03:08:51;;;;;;;3.65;3.35;;;19.70;66.40;;;;;;5028283;28;20196;-64
2023/02/09 03:11:20;;;;;;;5.15;3.80;;;19.70;66.30;;;;;;5028361;28;20204;-65
2023/02/09 03:14:18;;;;;;;4.80;3.63;;;19.70;66.30;;;;;;5026355;28;20204;-64
2023/02/09 03:16:46;;;;;;;4.75;4.35;;;19.70;66.30;;;;;;5029085;28;20192;-64
2023/02/09 03:19:29;;;;;;;3.20;2.90;;;19.70;66.30;;;;;;5028426;28;20207;-65
2023/02/09 03:21:59;;;;;;;3.40;3.10;;;19.70;66.30;;;;;;5026463;28;20278;-64
2023/02/09 03:24:44;;;;;;;3.00;2.80;;;19.70;66.30;;;;;;5026183;28;20192;-64
2023/02/09 03:27:16;;;;;;;3.65;3.35;;;19.70;66.30;;;;;;5027821;28;20215;-65
2023/02/09 03:29:45;;;;;;;3.67;3.35;;;19.70;66.30;;;;;;5039854;28;20204;-65
2023/02/09 03:32:12;;;;;;;3.60;3.30;;;19.70;66.20;;;;;;5035922;28;20204;-65
2023/02/09 03:34:41;;;;;;;3.40;3.10;;;19.70;66.30;;;;;;5029756;28;20266;-64
2023/02/09 03:37:07;;;;;;;4.15;3.75;;;19.70;66.30;;;;;;5031209;28;20584;-65
2023/02/09 03:39:34;;;;;;;3.92;3.20;;;19.70;66.30;;;;;;5027630;28;20203;-65
2023/02/09 03:42:01;;;;;;;4.10;3.78;;;19.70;66.30;;;;;;5027979;28;20220;-64
2023/02/09 03:44:27;;;;;;;3.10;2.80;;;19.70;66.30;;;;;;5033024;28;20206;-64
2023/02/09 03:46:56;;;;;;;3.85;3.20;;;19.70;66.30;;;;;;5028481;28;20287;-64
2023/02/09 03:49:25;;;;;;;3.45;3.15;;;19.70;66.20;;;;;;5022562;28;20199;-64
2023/02/09 03:51:53;;;;;;;3.90;3.38;;;19.70;66.20;;;;;;5030481;28;20204;-64
2023/02/09 03:54:20;;;;;;;3.63;3.33;;;19.70;66.30;;;;;;5027797;28;20204;-64
2023/02/09 03:56:47;;;;;;;3.83;3.38;;;19.70;66.20;;;;;;5030128;28;20204;-64
2023/02/09 03:59:14;;;;;;;3.20;2.90;;;19.70;66.20;;;;;;5032121;28;20188;-64
2023/02/09 04:01:40;;;;;;;3.50;3.20;;;19.70;66.20;;;;;;5039042;28;20227;-65
2023/02/09 04:04:07;;;;;;;3.45;3.15;;;19.70;66.30;;;;;;5030904;28;20200;-64
2023/02/09 04:06:35;;;;;;;3.55;3.00;;;19.70;66.20;;;;;;5034351;28;20192;-64
2023/02/09 04:09:04;;;;;;;3.70;3.40;;;19.70;66.20;;;;;;5026712;28;20246;-64
2023/02/09 04:11:31;;;;;;;3.63;3.33;;;19.70;66.20;;;;;;5044738;28;20215;-64
2023/02/09 04:13:58;;;;;;;4.10;3.70;;;19.70;66.20;;;;;;5033664;28;20214;-64
2023/02/09 04:16:25;;;;;;;4.03;3.67;;;19.60;66.20;;;;;;5029018;28;20200;-64
2023/02/09 04:18:52;;;;;;;3.13;2.83;;;19.60;66.10;;;;;;5036499;28;20207;-65
2023/02/09 04:21:19;;;;;;;3.25;2.95;;;19.70;66.20;;;;;;5048389;28;20226;-64
2023/02/09 04:23:46;;;;;;;3.03;2.72;;;19.70;66.20;;;;;;5035438;28;20230;-64
2023/02/09 04:26:15;;;;;;;3.50;3.20;;;19.60;66.00;;;;;;5030801;28;20212;-65
2023/02/09 04:28:41;;;;;;;3.30;3.00;;;19.70;66.20;;;;;;5029017;28;20219;-65
2023/02/09 04:31:09;;;;;;;3.33;3.03;;;19.60;66.00;;;;;;5031080;28;20203;-64
2023/02/09 04:33:35;;;;;;;4.22;3.30;;;19.60;66.00;;;;;;5031168;28;20207;-65
2023/02/09 04:36:03;;;;;;;3.05;2.58;;;19.60;66.10;;;;;;5033077;28;20196;-64
2023/02/09 04:38:30;;;;;;;3.63;3.28;;;19.60;66.00;;;;;;5041859;28;20204;-64
2023/02/09 04:40:59;;;;;;;3.65;3.35;;;19.60;66.00;;;;;;5037390;28;20195;-66
2023/02/09 04:43:27;;;;;;;3.33;3.10;;;19.60;66.00;;;;;;5034110;28;20200;-65
2023/02/09 04:45:54;;;;;;;3.60;3.15;;;19.60;66.00;;;;;;5030416;28;20679;-64
2023/02/09 04:48:23;;;;;;;3.70;3.10;;;19.60;66.00;;;;;;5037375;28;20208;-65
2023/02/09 04:50:51;;;;;;;2.95;2.55;;;19.60;66.00;;;;;;5040231;28;20200;-64
2023/02/09 04:53:18;;;;;;;4.00;3.60;;;19.60;66.00;;;;;;5041923;28;20204;-64
2023/02/09 04:55:46;;;;;;;3.50;3.20;;;19.60;66.00;;;;;;5033549;28;20207;-64
2023/02/09 05:01:01;;;;;;;3.63;3.20;;;19.60;66.00;;;;;;5033880;28;20203;-64
2023/02/09 05:03:28;;;;;;;3.00;2.60;;;19.60;66.00;;;;;;5026131;28;20203;-65
2023/02/09 05:05:55;;;;;;;3.38;3.10;;;19.60;66.00;;;;;;5026429;28;20215;-64
2023/02/09 05:08:23;;;;;;;4.78;3.33;;;19.60;66.00;;;;;;5027383;28;20189;-64
2023/02/09 05:10:50;;;;;;;3.05;2.72;;;19.60;66.00;;;;;;5029139;28;20204;-64
2023/02/09 05:13:17;;;;;;;3.22;2.92;;;19.60;65.90;;;;;;5025682;28;20207;-65
2023/02/09 05:15:44;;;;;;;3.22;2.92;;;19.60;65.90;;;;;;5029665;28;20203;-64
2023/02/09 05:18:13;;;;;;;3.65;3.35;;;19.60;66.00;;;;;;5022298;28;20203;-64
2023/02/09 05:20:40;;;;;;;3.25;2.53;;;19.60;65.90;;;;;;5032705;28;20203;-64
2023/02/09 05:23:06;;;;;;;2.90;2.70;;;19.60;66.80;;;;;;5025450;28;20232;-65
2023/02/09 05:25:33;;;;;;;3.30;3.00;;;19.60;65.90;;;;;;5025582;28;20196;-64
2023/02/09 05:28:00;;;;;;;3.53;3.22;;;19.60;65.90;;;;;;5025392;28;20567;-65
2023/02/09 05:30:27;;;;;;;3.30;3.00;;;19.60;65.90;;;;;;5026901;28;20219;-65
2023/02/09 05:32:54;;;;;;;3.80;3.50;;;19.60;65.90;;;;;;5029697;28;20599;-65
2023/02/09 05:35:22;;;;;;;3.97;3.58;;;19.60;65.90;;;;;;5026480;28;20196;-64
2023/02/09 05:37:48;;;;;;;3.20;2.90;;;19.60;65.90;;;;;;5027154;28;20607;-64
2023/02/09 05:40:15;;;;;;;4.32;3.92;;;19.60;65.90;;;;;;5024329;28;20496;-64
2023/02/09 05:42:42;;;;;;;3.53;3.22;;;19.60;65.90;;;;;;5028860;28;20216;-64
2023/02/09 05:45:10;;;;;;;3.00;2.70;;;19.60;65.90;;;;;;5031500;28;20211;-64
2023/02/09 05:47:36;;;;;;;2.97;2.78;;;19.60;65.90;;;;;;5027291;28;20200;-64
2023/02/09 05:50:04;;;;;;;3.58;3.28;;;19.60;65.90;;;;;;5029056;28;20200;-64
2023/02/09 05:52:32;;;;;;;3.53;3.22;;;19.60;65.90;;;;;;5027755;28;20208;-64
2023/02/09 05:54:59;;;;;;;3.00;2.80;;;19.60;65.80;;;;;;5031399;28;20215;-65
2023/02/09 05:57:25;;;;;;;3.35;2.70;;;19.60;65.90;;;;;;5028266;28;20652;-64
2023/02/09 05:59:52;;;;;;;2.92;2.72;;;19.60;65.80;;;;;;5028083;28;20200;-64
2023/02/09 06:02:19;;;;;;;3.08;2.80;;;19.60;65.80;;;;;;5033225;28;20579;-64
2023/02/09 06:04:45;;;;;;;2.95;2.75;;;19.60;65.80;;;;;;5042671;28;20203;-65
2023/02/09 06:07:12;;;;;;;3.00;2.70;;;19.60;65.80;;;;;;5032351;28;20192;-64
2023/02/09 06:09:40;;;;;;;3.63;2.70;;;19.60;65.80;;;;;;5032010;28;20698;-64
2023/02/09 06:12:07;;;;;;;3.33;3.03;;;19.60;65.80;;;;;;5031548;28;20234;-64
2023/02/09 06:14:33;;;;;;;2.63;2.42;;;19.60;65.80;;;;;;5032637;28;20224;-64
2023/02/09 06:17:00;;;;;;;3.20;2.95;;;19.60;65.80;;;;;;5028323;28;20643;-64
2023/02/09 06:19:27;;;;;;;3.83;2.90;;;19.60;65.80;;;;;;5028432;28;20192;-64
2023/02/09 06:21:54;;;;;;;2.72;2.53;;;19.60;65.80;;;;;;5038165;28;20231;-60
2023/02/09 06:24:20;;;;;;;3.42;2.63;;;19.60;65.90;;;;;;5025400;28;20199;-63
2023/02/09 06:26:48;;;;;;;5.30;2.90;;;19.70;66.20;;;;;;5031156;28;20656;-62
2023/02/09 06:29:15;;;;;;;4.70;2.88;;;19.70;66.10;;;;;;5032595;28;20218;-62
2023/02/09 06:31:42;;;;;;;9.27;3.80;;;19.70;66.20;;;;;;5032268;28;20804;-64
2023/02/09 06:34:09;;;;;;;5.15;2.97;;;19.70;66.20;;;;;;5032739;28;20196;-63
2023/02/09 06:36:35;;;;;;;14.82;3.55;;;19.70;66.40;;;;;;5033248;28;20199;-65
2023/02/09 06:39:02;;;;;;;4.80;2.85;;;19.70;66.50;;;;;;5027348;28;20207;-64
2023/02/09 06:41:29;;;;;;;4.82;2.70;;;19.70;66.70;;;;;;5029274;28;20204;-64
2023/02/09 06:43:57;;;;;;;3.55;2.42;;;19.70;66.90;;;;;;5033305;28;20200;-63
2023/02/09 06:46:23;;;;;;;17.10;3.63;;;19.70;67.00;;;;;;5025484;28;20203;-63
2023/02/09 06:48:50;;;;;;;6.43;2.80;;;19.70;67.00;;;;;;5028391;28;20199;-63
2023/02/09 06:51:17;;;;;;;4.80;2.92;;;19.60;66.90;;;;;;5032703;28;20200;-63
2023/02/09 06:53:44;;;;;;;8.48;3.10;;;19.60;66.90;;;;;;5032542;28;20234;-67
2023/02/09 06:56:12;;;;;;;3.60;3.30;;;19.60;67.00;;;;;;5038980;28;20195;-66
2023/02/09 06:58:39;;;;;;;5.20;2.90;;;19.60;67.00;;;;;;5021847;28;20461;-60
2023/02/09 07:01:10;;;;;;;4.40;3.20;;;19.70;67.80;;;;;;5024985;28;20204;-60
2023/02/09 07:03:37;;;;;;;4.30;3.25;;;19.70;67.30;;;;;;5032226;28;20234;-61
2023/02/09 07:06:05;;;;;;;3.58;3.13;;;19.60;67.30;;;;;;5023119;28;20199;-63
2023/02/09 07:08:32;;;;;;;3.85;2.42;;;19.60;67.40;;;;;;5022487;28;20208;-63
2023/02/09 07:11:02;;;;;;;6.90;3.70;;;19.60;67.40;;;;;;5027866;28;20224;-61
2023/02/09 07:13:30;;;;;;;5.75;3.60;;;19.70;67.40;;;;;;5022773;28;20668;-60
2023/02/09 07:15:59;;;;;;;3.40;3.10;;;19.60;67.30;;;;;;5025041;28;20201;-62
2023/02/09 07:18:27;;;;;;;5.53;3.00;;;19.60;67.10;;;;;;5028489;28;20192;-61
2023/02/09 07:20:55;;;;;;;3.78;3.42;;;19.60;66.80;;;;;;5027445;28;20207;-64
2023/02/09 07:23:22;;;;;;;7.00;4.13;;;19.60;66.50;;;;;;5026888;28;20685;-61
2023/02/09 07:25:48;;;;;;;3.60;3.30;;;19.60;66.40;;;;;;5027621;28;20219;-62
2023/02/09 07:28:15;;;;;;;3.42;3.10;;;19.60;66.30;;;;;;5028158;28;20228;-61
2023/02/09 07:30:42;;;;;;;3.30;3.05;;;19.60;66.30;;;;;;5020220;28;20204;-63
2023/02/09 07:33:09;;;;;;;3.50;3.20;;;19.60;66.40;;;;;;5025652;28;20603;-62
2023/02/09 07:35:39;;;;;;;2.75;2.45;;;19.60;66.40;;;;;;5026231;28;20200;-61
2023/02/09 07:38:06;;;;;;;3.58;3.17;;;19.60;66.40;;;;;;5024076;28;20227;-60
2023/02/09 07:40:33;;;;;;;2.90;2.70;;;19.60;66.40;;;;;;5031270;28;20212;-61
2023/02/09 07:42:59;;;;;;;3.53;3.22;;;19.60;66.60;;;;;;5032579;28;20227;-60
2023/02/09 07:45:26;;;;;;;3.85;2.75;;;19.60;66.80;;;;;;5031070;28;20580;-61
2023/02/09 07:47:53;;;;;;;4.50;3.08;;;19.50;66.90;;;;;;5031985;28;20218;-62
2023/02/09 07:50:19;;;;;;;3.25;2.88;;;19.50;67.00;;;;;;5031827;28;20196;-61
2023/02/09 07:52:48;;;;;;;3.50;3.10;;;19.50;67.20;;;;;;5029834;28;20196;-64
2023/02/09 07:55:14;;;;;;;3.95;3.05;;;19.50;67.30;;;;;;5028110;28;20586;-63
2023/02/09 07:57:41;;;;;;;3.38;3.08;;;19.50;67.30;;;;;;5031213;28;20208;-64
2023/02/09 08:00:09;;;;;;;3.75;2.95;;;19.50;67.40;;;;;;5026812;28;20652;-62
2023/02/09 08:02:37;;;;;;;3.92;3.53;;;19.50;67.40;;;;;;5033912;28;20267;-61
2023/02/09 08:05:08;;;;;;;3.15;2.85;;;19.50;67.50;;;;;;5031774;28;20200;-61
2023/02/09 08:07:35;;;;;;;3.05;2.78;;;19.50;67.60;;;;;;5029193;28;20197;-61
2023/02/09 08:10:03;;;;;;;2.90;2.70;;;19.50;67.70;;;;;;5023550;28;20415;-61
2023/02/09 08:15:20;;;;;;;3.60;2.30;;;19.50;67.80;;;;;;5027423;28;20556;-61
2023/02/09 08:17:47;;;;;;;3.95;2.78;;;19.50;67.80;;;;;;5030765;28;20270;-63
2023/02/09 08:20:17;;;;;;;3.97;2.30;;;19.50;67.90;;;;;;5031927;28;20196;-61
2023/02/09 08:22:46;;;;;;;3.17;2.83;;;19.50;67.90;;;;;;5021727;28;20682;-61
2023/02/09 08:25:17;;;;;;;3.38;3.03;;;19.50;67.90;;;;;;5025540;28;20589;-63
2023/02/09 08:27:45;;;;;;;3.15;2.95;;;19.50;67.90;;;;;;5039999;28;20219;-61
2023/02/09 08:30:14;;;;;;;2.95;2.72;;;19.50;68.00;;;;;;5030840;28;20211;-63
2023/02/09 08:32:41;;;;;;;2.72;2.45;;;19.50;68.00;;;;;;5031250;28;20212;-61
2023/02/09 08:35:08;;;;;;;3.92;3.50;;;19.50;67.90;;;;;;5029683;28;20203;-62
2023/02/09 08:37:35;;;;;;;2.90;2.70;;;19.50;68.00;;;;;;5038033;28;20196;-62
2023/02/09 08:40:01;;;;;;;4.07;3.10;;;19.50;67.90;;;;;;5030224;28;20707;-59
2023/02/09 08:42:29;;;;;;;3.70;3.40;;;19.40;67.70;;;;;;5040405;28;20231;-59
2023/02/09 08:44:56;;;;;;;6.93;2.92;;;19.50;67.50;;;;;;5037877;28;20199;-61
2023/02/09 08:47:23;;;;;;;9.30;3.10;;;19.50;67.40;;;;;;5023911;28;20588;-64
2023/02/09 08:49:50;;;;;;;3.60;3.20;;;19.50;67.30;;;;;;5037406;28;20199;-60
2023/02/09 08:52:17;;;;;;;2.95;2.75;;;19.50;67.10;;;;;;5048056;28;20245;-65
2023/02/09 08:54:44;;;;;;;3.75;2.80;;;19.60;67.20;;;;;;5025160;28;20204;-62
2023/02/09 08:57:10;;;;;;;2.50;2.30;;;19.60;67.10;;;;;;5035549;28;20570;-60
2023/02/09 08:59:38;;;;;;;3.15;2.60;;;19.60;67.00;;;;;;5038699;28;20199;-62
2023/02/09 09:02:05;;;;;;;3.25;3.05;;;19.60;67.00;;;;;;5040422;28;20199;-60
2023/02/09 09:04:32;;;;;;;2.83;2.63;;;19.60;66.90;;;;;;5029429;28;20231;-60
2023/02/09 09:06:59;;;;;;;3.72;3.42;;;19.60;66.80;;;;;;5034917;28;20367;-60
2023/02/09 09:09:25;;;;;;;2.88;2.55;;;19.60;66.80;;;;;;5025057;28;20202;-60
2023/02/09 09:11:52;;;;;;;2.95;2.50;;;19.60;66.80;;;;;;5035481;28;20576;-60
2023/02/09 09:14:19;;;;;;;4.63;3.08;;;19.60;66.70;;;;;;5030720;28;20671;-59
2023/02/09 09:16:47;;;;;;;2.53;2.33;;;19.60;66.70;;;;;;5030924;28;20201;-60
2023/02/09 09:19:14;;;;;;;3.42;2.78;;;19.60;66.70;;;;;;5022368;28;20204;-62
2023/02/09 09:21:40;;;;;;;3.40;2.78;;;19.60;66.60;;;;;;5025402;28;20219;-58
2023/02/09 09:24:07;;;;;;;3.50;2.50;;;19.60;66.50;;;;;;5027500;28;20220;-59
2023/02/09 09:26:34;;;;;;;2.70;2.47;;;19.60;66.50;;;;;;5029700;28;20193;-60
2023/02/09 09:29:01;;;;;;;4.68;3.05;;;19.60;66.50;;;;;;5025772;28;20572;-62
2023/02/09 09:31:29;;;;;;;2.97;2.78;;;19.60;66.50;;;;;;5034257;28;20203;-60
2023/02/09 09:33:57;;;;;;;3.63;2.80;;;19.60;66.40;;;;;;5028025;28;20295;-59
2023/02/09 09:36:24;;;;;;;3.30;2.75;;;19.60;66.40;;;;;;5032693;28;20219;-60
2023/02/09 09:38:50;;;;;;;3.25;2.90;;;19.60;66.40;;;;;;5025448;28;20215;-59
2023/02/09 09:41:22;;;;;;;2.65;2.40;;;19.60;66.40;;;;;;5029552;28;20201;-65
2023/02/09 09:43:49;;;;;;;2.90;2.70;;;19.60;66.30;;;;;;5026559;28;20224;-58
2023/02/09 09:46:19;;;;;;;2.50;2.30;;;19.60;66.30;;;;;;5029162;28;20192;-59
2023/02/09 09:48:49;;;;;;;4.07;3.63;;;19.60;66.30;;;;;;5022750;28;20211;-61
2023/02/09 09:51:24;;;;;;;3.05;2.85;;;19.60;66.30;;;;;;5028102;28;20196;-63
2023/02/09 09:53:54;;;;;;;3.78;3.38;;;19.50;66.20;;;;;;5020069;28;20204;-59
2023/02/09 09:56:21;;;;;;;3.13;2.83;;;19.50;66.20;;;;;;5027044;28;20212;-60
2023/02/09 09:58:50;;;;;;;6.05;2.55;;;19.50;66.20;;;;;;5034531;28;20208;-63
2023/02/09 10:01:19;;;;;;;2.80;2.35;;;19.50;66.20;;;;;;5037188;28;20200;-67
2023/02/09 10:03:46;;;;;;;2.30;2.10;;;19.50;66.20;;;;;;5032695;28;20266;-60
2023/02/09 10:06:18;;;;;;;3.05;2.85;;;19.50;66.20;;;;;;5033385;28;20222;-60
2023/02/09 10:08:51;;;;;;;2.83;2.40;;;19.60;66.20;;;;;;5021694;28;20200;-59
2023/02/09 10:11:22;;;;;;;2.88;2.47;;;19.60;66.20;;;;;;5038627;28;20206;-65
2023/02/09 10:13:51;;;;;;;3.85;2.67;;;19.60;66.20;;;;;;5034117;28;20196;-61
2023/02/09 10:16:20;;;;;;;3.90;3.20;;;19.60;66.20;;;;;;5032528;28;20576;-64
2023/02/09 10:18:49;;;;;;;4.90;2.75;;;19.70;66.40;;;;;;5026874;28;20207;-60
2023/02/09 10:21:18;;;;;;;3.85;2.83;;;19.70;66.50;;;;;;5030059;28;20210;-59
2023/02/09 10:23:47;;;;;;;4.53;2.72;;;19.70;66.70;;;;;;5016748;28;20600;-60
2023/02/09 10:26:22;;;;;;;3.42;3.13;;;19.70;66.80;;;;;;5026183;28;20196;-60
2023/02/09 10:28:51;;;;;;;4.07;2.80;;;19.70;67.00;;;;;;5022340;28;20211;-63
2023/02/09 10:31:24;;;;;;;2.85;2.40;;;19.70;67.20;;;;;;5028272;28;20196;-61
2023/02/09 10:33:57;;;;;;;2.97;2.67;;;19.70;67.10;;;;;;5034538;28;20207;-63
2023/02/09 10:36:29;;;;;;;2.47;2.28;;;19.70;67.20;;;;;;5029064;28;20200;-63
2023/02/09 10:39:14;;;;;;;4.05;3.20;;;19.70;67.10;;;;;;5021835;28;20196;-67
2023/02/09 10:41:43;;;;;;;4.45;2.40;;;19.80;67.30;;;;;;5028298;28;20608;-65
2023/02/09 10:44:18;;;;;;;3.17;2.38;;;19.80;67.40;;;;;;5029781;28;20224;-67
2023/02/09 10:46:45;;;;;;;3.75;2.70;;;19.80;67.40;;;;;;5037759;28;20200;-67
2023/02/09 10:49:30;;;;;;;2.35;2.15;;;19.80;67.40;;;;;;5023391;28;20232;-67
2023/02/09 10:52:06;;;;;;;2.60;2.40;;;19.80;67.50;;;;;;5029391;28;20196;-62
2023/02/09 10:54:33;;;;;;;3.60;2.92;;;19.80;67.50;;;;;;5025174;28;20211;-63
2023/02/09 10:57:00;;;;;;;4.05;2.40;;;19.80;67.60;;;;;;5032389;28;20691;-64
2023/02/09 10:59:26;;;;;;;2.80;2.42;;;19.80;67.70;;;;;;5030918;28;20212;-58
2023/02/09 11:01:56;;;;;;;3.00;2.70;;;19.80;67.70;;;;;;5024086;28;20211;-63
2023/02/09 11:04:24;;;;;;;2.50;2.30;;;19.80;67.80;;;;;;5029605;28;20243;-60
2023/02/09 11:06:54;;;;;;;3.33;2.28;;;19.80;67.80;;;;;;5029819;28;20199;-64
2023/02/09 11:09:27;;;;;;;3.00;2.28;;;19.80;67.80;;;;;;5022304;28;20652;-66
2023/02/09 11:11:54;;;;;;;2.60;2.40;;;19.90;67.90;;;;;;5022402;28;20216;-69
2023/02/09 11:14:21;;;;;;;2.70;2.15;;;19.90;67.90;;;;;;5032728;28;20655;-65
2023/02/09 11:17:05;;;;;;;2.50;2.30;;;19.90;67.90;;;;;;5027555;28;20196;-64
2023/02/09 11:19:58;;;;;;;2.60;2.40;;;19.90;67.90;;;;;;5032231;28;20199;-64
2023/02/09 11:22:43;;;;;;;2.90;2.47;;;19.90;68.00;;;;;;5035497;28;20234;-68
2023/02/09 11:25:19;;;;;;;2.60;2.40;;;19.90;68.00;;;;;;5029245;28;20235;-65
2023/02/09 11:27:58;;;;;;;3.08;2.78;;;19.90;68.00;;;;;;5030802;28;20650;-62
2023/02/09 11:30:38;;;;;;;3.90;3.03;;;19.90;68.00;;;;;;5033528;28;20212;-64
2023/02/09 11:33:15;;;;;;;2.30;2.10;;;19.90;68.10;;;;;;5027751;28;20638;-63
2023/02/09 11:35:49;;;;;;;2.83;2.63;;;19.90;68.10;;;;;;5036655;28;20192;-65
2023/02/09 11:38:19;;;;;;;5.35;2.50;;;20.00;68.20;;;;;;5034621;28;20205;-65
2023/02/09 11:40:51;;;;;;;2.45;2.25;;;20.00;68.20;;;;;;5025463;28;20196;-67
2023/02/09 11:43:25;;;;;;;8.40;6.80;;;20.00;68.30;;;;;;5033353;28;20191;-70
2023/02/09 11:45:55;;;;;;;9.00;8.10;;;19.40;56.90;;;;;;5029044;28;20192;-67
2023/02/09 11:48:25;;;;;;;13.43;7.93;;;18.80;52.00;;;;;;5025779;28;20196;-67
2023/02/09 11:51:01;;;;;;;10.73;9.50;;;18.30;48.80;;;;;;5030138;28;20260;-67
2023/02/09 11:53:36;;;;;;;9.95;8.95;;;17.90;45.90;;;;;;5027814;28;20199;-63
2023/02/09 11:56:08;;;;;;;11.02;7.80;;;17.80;47.10;;;;;;5036327;28;20241;-67
2023/02/09 11:58:44;;;;;;;8.93;6.20;;;18.30;50.60;;;;;;5032542;28;20192;-61
2023/02/09 12:01:20;;;;;;;6.15;5.60;;;18.70;52.80;;;;;;5027034;28;20192;-63
2023/02/09 12:04:03;;;;;;;7.35;5.10;;;19.00;54.00;;;;;;5024354;28;20687;-63
2023/02/09 12:06:36;;;;;;;4.93;4.47;;;19.20;54.90;;;;;;5037522;28;20198;-62
2023/02/09 12:09:15;;;;;;;4.90;3.83;;;19.30;55.50;;;;;;5027482;28;20208;-64
2023/02/09 12:11:52;;;;;;;5.53;3.92;;;19.40;56.30;;;;;;5031310;28;20196;-63
2023/02/09 12:14:45;;;;;;;3.90;3.50;;;19.40;57.10;;;;;;5037273;28;20206;-66
2023/02/09 12:17:15;;;;;;;3.97;3.40;;;19.50;58.10;;;;;;5026705;28;20192;-62
2023/02/09 12:19:44;;;;;;;6.35;3.80;;;19.50;58.60;;;;;;5033543;28;20656;-65
2023/02/09 12:22:45;;;;;;;3.92;3.60;;;19.50;59.20;;;;;;5030619;28;20254;-66
2023/02/09 12:25:35;;;;;;;3.80;3.28;;;19.50;59.60;;;;;;5024969;28;20227;-65
2023/02/09 12:28:36;;;;;;;4.35;3.65;;;19.60;60.00;;;;;;5028429;28;20196;-63
2023/02/09 12:31:23;;;;;;;3.65;3.30;;;19.70;60.10;;;;;;5037123;28;20204;-75
2023/02/09 12:34:29;;;;;;;3.72;3.42;;;19.80;60.40;;;;;;5032394;28;20207;-67
2023/02/09 12:37:18;;;;;;;3.35;3.00;;;19.80;60.50;;;;;;5026272;28;20607;-67
2023/02/09 12:40:17;;;;;;;3.65;2.95;;;19.90;60.90;;;;;;5024535;28;20502;-67
2023/02/09 12:42:45;;;;;;;3.35;3.05;;;19.90;61.10;;;;;;5030542;28;20215;-61
2023/02/09 12:45:36;;;;;;;4.53;2.85;;;19.90;61.20;;;;;;5033813;28;20307;-63
2023/02/09 12:48:13;;;;;;;3.28;2.90;;;20.00;61.50;;;;;;5023914;28;20243;-68
2023/02/09 12:50:52;;;;;;;3.03;2.83;;;20.00;61.70;;;;;;5028350;28;20228;-59
2023/02/09 12:53:45;;;;;;;3.17;2.50;;;20.00;61.80;;;;;;5031816;28;20196;-58
2023/02/09 12:56:31;;;;;;;3.20;2.90;;;20.00;62.00;;;;;;5030935;28;20778;-66
2023/02/09 12:59:16;;;;;;;2.92;2.72;;;20.00;62.20;;;;;;5034659;28;20198;-64
2023/02/09 13:02:09;;;;;;;2.80;2.50;;;20.00;62.30;;;;;;5041396;28;20189;-68
2023/02/09 13:04:41;;;;;;;3.40;2.90;;;20.10;62.60;;;;;;5029151;28;20281;-65
2023/02/09 13:07:16;;;;;;;3.33;3.03;;;20.10;62.70;;;;;;5033749;28;20203;-64
2023/02/09 13:09:44;;;;;;;2.90;2.70;;;20.10;62.90;;;;;;5022148;28;20200;-65